Nearby METAR Reports

 

KSBP - San Luis Obispo, California, USA
Distance from station: S 14mi, 22km
Updated: Mon, 26-Sep-2022 2:56pm PDT
Clear
Clear
 Wind from NW
Wind: NW 16 mph , 26 km/h
Temperature: 73°F , 23°C
Dew Point: 57°F , 14°C
Humidity: 57%
Barometer: 29.93 inHg , 1013.5 hPa
Clouds: Clear
Visibility: 10 miles , 16 km
2022/09/26 21:56 KSBP 262156Z 31014KT 10SM CLR 23/14 A2993 RMK AO2 SLP134 T02280144
KPRB - Paso Robles, California, USA
Distance from station: N 16mi, 26km
Updated: Mon, 26-Sep-2022 2:53pm PDT
Clear
Clear
 Wind from varies
Wind: varies 5 mph , 7 km/h
Temperature: 93°F , 34°C
Dew Point: 50°F , 10°C
Humidity: 23%
Barometer: 29.93 inHg , 1013.5 hPa
Clouds: Clear
Visibility: 10 miles , 16 km
2022/09/26 21:53 KPRB 262153Z AUTO VRB04KT 10SM CLR 34/10 A2993 RMK AO2 SLP125 T03440100
 
KSMX - Santa Maria, California, USA
Distance from station: SSE 38mi, 62km
Updated: Mon, 26-Sep-2022 3:51pm PDT
Partly cloudy
Partly cloudy
 Wind from NW
Wind: NW 9 mph , 15 km/h
Temperature: 66°F , 19°C
Dew Point: 59°F , 15°C
Humidity: 78%
Barometer: 29.94 inHg , 1013.9 hPa
Clouds: Partly cloudy
Visibility: 9 miles , 14 km
Cloud details: Few Clouds 4000 ft
Partly cloudy 20000 ft
2022/09/26 22:51 KSMX 262251Z 31008KT 9SM FEW040 SCT200 19/15 A2994 RMK AO2 SLP140 T01940150
KVBG - Vandenberg Afb, California, USA
Distance from station: S 48mi, 78km
Updated: Mon, 26-Sep-2022 2:56pm PDT
Partly cloudy
Partly cloudy
 Wind from N
Wind: N 13 mph , 20 km/h
Temperature: 64°F , 18°C
Dew Point: 59°F , 15°C
Humidity: 83%
Barometer: 29.97 inHg , 1014.9 hPa
Clouds: Partly cloudy
Visibility: 8 miles , 13 km
Cloud details: Partly cloudy 600 ft
2022/09/26 21:56 KVBG 262156Z 35011KT 8SM SCT006 18/15 A2997 RMK AO2A SLP151 T01780145 FZRANO TSNO $